TimeEDT,TemperatureF,Dew PointF,Humidity,Sea Level PressureIn,VisibilityMPH,Wind Direction,Wind SpeedMPH,Gust SpeedMPH,PrecipitationIn,Events,Conditions,WindDirDegrees,DateUTC
12:15 AM,37.4,23.0,56,29.56,10.0,NNE,13.8,21.9,N/A,,Mostly Cloudy,20,2013-03-26 04:15:00
12:35 AM,35.6,23.0,60,29.56,10.0,North,8.1,-,N/A,,Overcast,10,2013-03-26 04:35:00
12:55 AM,35.6,23.0,60,29.57,10.0,NNE,11.5,-,N/A,,Overcast,20,2013-03-26 04:55:00
1:16 AM,35.6,21.2,56,29.58,10.0,North,6.9,-,N/A,,Overcast,360,2013-03-26 05:16:00
1:55 AM,35.6,23.0,60,29.58,10.0,NNW,6.9,-,N/A,,Mostly Cloudy,340,2013-03-26 05:55:00
2:15 AM,35.6,23.0,60,29.58,10.0,North,8.1,-,N/A,,Partly Cloudy,350,2013-03-26 06:15:00
2:35 AM,35.6,23.0,60,29.59,10.0,NNW,8.1,-,N/A,,Mostly Cloudy,340,2013-03-26 06:35:00
2:55 AM,35.6,24.8,65,29.59,10.0,North,9.2,-,N/A,,Overcast,360,2013-03-26 06:55:00
3:15 AM,35.6,24.8,65,29.59,10.0,North,9.2,-,N/A,,Overcast,350,2013-03-26 07:15:00
3:35 AM,35.6,24.8,65,29.59,10.0,NNW,6.9,-,N/A,,Overcast,340,2013-03-26 07:35:00
4:15 AM,35.6,24.8,65,29.60,10.0,NNW,5.8,-,N/A,,Overcast,330,2013-03-26 08:15:00
4:35 AM,35.6,24.8,65,29.61,10.0,NNW,4.6,-,N/A,,Overcast,330,2013-03-26 08:35:00
4:55 AM,35.6,24.8,65,29.61,10.0,NNW,3.5,-,N/A,,Overcast,330,2013-03-26 08:55:00
5:15 AM,35.6,24.8,65,29.62,10.0,Calm,Calm,-,N/A,,Overcast,0,2013-03-26 09:15:00
5:35 AM,35.6,24.8,65,29.63,10.0,Calm,Calm,-,N/A,,Overcast,0,2013-03-26 09:35:00
5:45 AM,35.6,24.8,65,29.63,10.0,NW,3.5,-,N/A,,Overcast,310,2013-03-26 09:45:00
6:45 AM,35.6,24.8,65,29.65,10.0,NW,3.5,-,N/A,,Overcast,310,2013-03-26 10:45:00
7:45 AM,35.6,24.8,65,29.67,10.0,Calm,Calm,-,N/A,,Overcast,0,2013-03-26 11:45:00
8:45 AM,35.6,26.6,70,29.69,10.0,NW,4.6,-,N/A,,Overcast,310,2013-03-26 12:45:00
9:45 AM,37.4,26.6,65,29.70,10.0,WNW,6.9,-,N/A,,Overcast,300,2013-03-26 13:45:00
10:45 AM,39.2,26.6,61,29.71,10.0,NNW,10.4,16.1,N/A,,Mostly Cloudy,330,2013-03-26 14:45:00
11:45 AM,42.8,26.6,53,29.72,10.0,North,11.5,18.4,N/A,,Overcast,360,2013-03-26 15:45:00
12:45 PM,42.8,26.6,53,29.72,10.0,North,13.8,23.0,N/A,,Mostly Cloudy,350,2013-03-26 16:45:00
1:45 PM,44.6,26.6,49,29.72,10.0,North,15.0,23.0,N/A,,Mostly Cloudy,350,2013-03-26 17:45:00
2:45 PM,44.6,24.8,46,29.72,10.0,NNW,11.5,23.0,N/A,,Scattered Clouds,340,2013-03-26 18:45:00
3:45 PM,46.4,24.8,43,29.83,10.0,North,11.5,23.0,N/A,,Scattered Clouds,360,2013-03-26 19:45:00
4:45 PM,46.4,23.0,40,29.73,10.0,NNW,11.5,23.0,N/A,,Mostly Cloudy,340,2013-03-26 20:45:00
5:45 PM,42.8,21.2,42,29.75,10.0,NW,8.1,-,N/A,,Scattered Clouds,310,2013-03-26 21:45:00
6:45 PM,42.8,21.2,42,29.77,10.0,NNW,5.8,-,N/A,,Scattered Clouds,330,2013-03-26 22:45:00
7:45 PM,41.0,19.4,42,29.79,10.0,North,9.2,-,N/A,,Partly Cloudy,350,2013-03-26 23:45:00
8:45 PM,35.6,19.4,52,29.81,10.0,NNW,4.6,-,N/A,,Clear,340,2013-03-27 00:45:00
9:15 PM,37.4,19.4,48,29.82,10.0,NW,3.5,-,N/A,,Clear,320,2013-03-27 01:15:00
9:35 PM,35.6,19.4,52,29.82,10.0,NNW,3.5,-,N/A,,Clear,330,2013-03-27 01:35:00
9:55 PM,35.6,19.4,52,29.82,10.0,NNW,3.5,-,N/A,,Clear,330,2013-03-27 01:55:00
10:55 PM,30.2,17.6,60,29.83,10.0,NNW,3.5,-,N/A,,Clear,340,2013-03-27 02:55:00
11:15 PM,32.0,17.6,55,29.82,10.0,Calm,Calm,-,N/A,,Clear,0,2013-03-27 03:15:00
11:35 PM,33.8,19.4,56,29.83,10.0,Calm,Calm,-,N/A,,Clear,0,2013-03-27 03:35:00
11:55 PM,33.8,17.6,52,29.83,10.0,Calm,Calm,-,N/A,,Clear,0,2013-03-27 03:55:00